Time;durP1;ratioP1;P1;durP2;ratioP2;P2;SDS_P1;SDS_P2;PMS_P1;PMS_P2;Temp;Humidity;BMP_temperature;BMP_pressure;BME280_temperature;BME280_humidity;BME280_pressure;Samples;Min_cycle;Max_cycle;Signal;HPM_P1;HPM_P2
2020/12/11 00:02:04;;;;;;;26.10;19.48;;;;;;;;;;6265862;28;20083;-70
2020/12/11 00:05:05;;;;;;;25.27;18.85;;;;;;;;;;6242620;28;20084;-68
2020/12/11 00:08:09;;;;;;;26.65;20.20;;;;;;;;;;6248062;28;20040;-68
2020/12/11 00:11:10;;;;;;;25.92;20.45;;;;;;;;;;6240308;28;20099;-68
2020/12/11 00:14:11;;;;;;;42.30;29.77;;;;;;;;;;6244814;28;20526;-71
2020/12/11 00:17:12;;;;;;;40.13;26.95;;;;;;;;;;6265299;28;20087;-67
2020/12/11 00:20:14;;;;;;;31.05;21.40;;;;;;;;;;6264778;28;20053;-67
2020/12/11 00:23:16;;;;;;;28.65;21.58;;;;;;;;;;6250973;28;20042;-69
2020/12/11 00:26:17;;;;;;;26.52;20.13;;;;;;;;;;6251315;28;20052;-68
2020/12/11 00:29:18;;;;;;;28.20;19.08;;;;;;;;;;6245484;28;20075;-69
2020/12/11 00:32:19;;;;;;;29.33;20.80;;;;;;;;;;6242433;28;20264;-68
2020/12/11 00:35:20;;;;;;;28.63;21.65;;;;;;;;;;6253224;28;20033;-70
2020/12/11 00:38:22;;;;;;;27.15;20.95;;;;;;;;;;6260706;28;20045;-68
2020/12/11 00:41:23;;;;;;;26.30;19.90;;;;;;;;;;6254389;28;20087;-68
2020/12/11 00:44:24;;;;;;;27.95;20.27;;;;;;;;;;6249658;28;20579;-68
2020/12/11 00:47:25;;;;;;;29.45;20.98;;;;;;;;;;6259727;28;20040;-68
2020/12/11 00:50:26;;;;;;;32.92;22.27;;;;;;;;;;6284457;28;20810;-67
2020/12/11 00:53:28;;;;;;;29.48;21.80;;;;;;;;;;6259467;28;20088;-69
2020/12/11 00:56:29;;;;;;;29.70;22.02;;;;;;;;;;6255950;28;20060;-68
2020/12/11 00:59:30;;;;;;;33.03;22.83;;;;;;;;;;6232446;28;20445;-67
2020/12/11 01:02:31;;;;;;;30.58;22.45;;;;;;;;;;6247844;28;20045;-68
2020/12/11 01:05:32;;;;;;;30.88;22.50;;;;;;;;;;6258188;28;20066;-68
2020/12/11 01:08:34;;;;;;;30.75;22.65;;;;;;;;;;6252518;28;20066;-69
2020/12/11 01:11:35;;;;;;;29.15;22.42;;;;;;;;;;6260347;28;20048;-68
2020/12/11 01:14:36;;;;;;;31.20;22.77;;;;;;;;;;6257485;28;20106;-69
2020/12/11 01:17:37;;;;;;;33.13;23.20;;;;;;;;;;6261041;28;20075;-69
2020/12/11 01:20:39;;;;;;;31.10;22.15;;;;;;;;;;6267015;28;20109;-69
2020/12/11 01:23:41;;;;;;;31.38;22.00;;;;;;;;;;6267615;28;20449;-70
2020/12/11 01:26:45;;;;;;;32.92;23.27;;;;;;;;;;6276654;28;20055;-69
2020/12/11 01:29:46;;;;;;;32.70;23.48;;;;;;;;;;6283338;28;20050;-70
2020/12/11 01:32:47;;;;;;;33.83;23.73;;;;;;;;;;6273129;28;20456;-69
2020/12/11 01:35:48;;;;;;;33.58;24.17;;;;;;;;;;6275343;28;20135;-71
2020/12/11 01:38:50;;;;;;;31.67;23.25;;;;;;;;;;6282602;28;20158;-70
2020/12/11 01:41:51;;;;;;;33.30;22.75;;;;;;;;;;6288293;28;20620;-69
2020/12/11 01:44:54;;;;;;;32.53;23.60;;;;;;;;;;6260726;28;20170;-73
2020/12/11 01:47:55;;;;;;;33.72;23.40;;;;;;;;;;6256679;28;20053;-69
2020/12/11 01:50:56;;;;;;;28.05;21.70;;;;;;;;;;6253767;28;20568;-70
2020/12/11 01:53:59;;;;;;;29.85;22.45;;;;;;;;;;6264200;28;20041;-71
2020/12/11 01:57:02;;;;;;;31.27;22.90;;;;;;;;;;6249419;28;20041;-69
2020/12/11 02:00:08;;;;;;;32.47;23.88;;;;;;;;;;6257360;28;20399;-69
2020/12/11 02:03:11;;;;;;;31.20;23.15;;;;;;;;;;6253251;28;20124;-69
2020/12/11 02:06:12;;;;;;;30.90;23.13;;;;;;;;;;6255369;28;20578;-70
2020/12/11 02:09:14;;;;;;;30.92;22.35;;;;;;;;;;6255036;28;20049;-70
2020/12/11 02:12:17;;;;;;;30.77;22.08;;;;;;;;;;6251302;28;20059;-68
2020/12/11 02:15:18;;;;;;;32.17;23.08;;;;;;;;;;6259446;28;20051;-71
2020/12/11 02:18:19;;;;;;;30.60;21.50;;;;;;;;;;6256330;28;20055;-69
2020/12/11 02:21:20;;;;;;;35.00;23.25;;;;;;;;;;6254453;28;20136;-71
2020/12/11 02:24:22;;;;;;;30.95;22.77;;;;;;;;;;6261656;28;20045;-70
2020/12/11 02:27:24;;;;;;;30.20;21.95;;;;;;;;;;6259713;28;20044;-68
2020/12/11 02:30:25;;;;;;;28.65;20.27;;;;;;;;;;6260297;28;20052;-70
2020/12/11 02:33:26;;;;;;;26.17;19.13;;;;;;;;;;6254510;28;20379;-68
2020/12/11 02:36:27;;;;;;;27.58;19.27;;;;;;;;;;6254559;28;20833;-69
2020/12/11 02:39:29;;;;;;;26.23;19.83;;;;;;;;;;6255758;28;20428;-69
2020/12/11 02:42:31;;;;;;;28.42;19.95;;;;;;;;;;6253031;28;20037;-69
2020/12/11 02:45:34;;;;;;;30.27;19.65;;;;;;;;;;6252875;28;20051;-69
2020/12/11 02:48:36;;;;;;;26.42;19.77;;;;;;;;;;6277307;28;20083;-69
2020/12/11 02:51:38;;;;;;;24.58;17.95;;;;;;;;;;6279321;28;20420;-68
2020/12/11 02:54:40;;;;;;;26.15;19.67;;;;;;;;;;6278776;28;20048;-70
2020/12/11 02:57:41;;;;;;;26.92;19.73;;;;;;;;;;6284067;28;20049;-69
2020/12/11 03:00:42;;;;;;;30.95;21.17;;;;;;;;;;6281735;28;20040;-73
2020/12/11 03:03:43;;;;;;;26.65;19.17;;;;;;;;;;6283618;28;20138;-70
2020/12/11 03:06:44;;;;;;;28.75;19.48;;;;;;;;;;6276547;28;20049;-69
2020/12/11 03:09:46;;;;;;;32.13;20.08;;;;;;;;;;6284819;28;20491;-70
2020/12/11 03:12:47;;;;;;;25.35;18.40;;;;;;;;;;6288814;28;20062;-71
2020/12/11 03:15:48;;;;;;;26.15;19.92;;;;;;;;;;6283237;28;20119;-71
2020/12/11 03:18:50;;;;;;;22.13;17.00;;;;;;;;;;6285162;28;20067;-71
2020/12/11 03:21:51;;;;;;;22.23;17.67;;;;;;;;;;6284401;28;20392;-69
2020/12/11 03:24:52;;;;;;;22.23;17.45;;;;;;;;;;6284100;28;20101;-70
2020/12/11 03:27:54;;;;;;;22.02;17.10;;;;;;;;;;6286357;28;20098;-70
2020/12/11 03:30:55;;;;;;;21.65;15.98;;;;;;;;;;6281191;28;20079;-69
2020/12/11 03:33:56;;;;;;;19.67;15.45;;;;;;;;;;6273133;28;20516;-70
2020/12/11 03:36:57;;;;;;;19.63;14.55;;;;;;;;;;6273452;28;20037;-71
2020/12/11 03:39:59;;;;;;;18.52;14.88;;;;;;;;;;6278176;28;20057;-68
2020/12/11 03:43:00;;;;;;;16.45;13.85;;;;;;;;;;6271286;28;20739;-72
2020/12/11 03:46:02;;;;;;;17.33;14.25;;;;;;;;;;6282905;28;20052;-69
2020/12/11 03:49:03;;;;;;;16.70;13.93;;;;;;;;;;6283079;28;20044;-73
2020/12/11 03:52:04;;;;;;;19.67;14.45;;;;;;;;;;6281789;28;20045;-70
2020/12/11 03:55:06;;;;;;;15.98;13.05;;;;;;;;;;6279530;28;20040;-69
2020/12/11 03:58:07;;;;;;;15.60;13.20;;;;;;;;;;6281674;28;20053;-69
2020/12/11 04:01:09;;;;;;;17.02;13.50;;;;;;;;;;6277107;28;20488;-71
2020/12/11 04:04:10;;;;;;;18.10;13.25;;;;;;;;;;6279866;28;20048;-70
2020/12/11 04:07:11;;;;;;;15.52;13.23;;;;;;;;;;6278671;28;20045;-70
2020/12/11 04:10:14;;;;;;;15.48;13.25;;;;;;;;;;6276165;28;20041;-69
2020/12/11 04:13:15;;;;;;;17.40;13.52;;;;;;;;;;6278653;28;20051;-71
2020/12/11 04:16:16;;;;;;;17.33;13.65;;;;;;;;;;6286641;28;20398;-69
2020/12/11 04:19:19;;;;;;;17.40;13.95;;;;;;;;;;6287446;28;20389;-70
2020/12/11 04:22:20;;;;;;;18.90;14.85;;;;;;;;;;6285278;28;20044;-72
2020/12/11 04:25:23;;;;;;;18.67;13.68;;;;;;;;;;6287412;28;20514;-70
2020/12/11 04:28:24;;;;;;;22.73;15.82;;;;;;;;;;6289597;28;20037;-70
2020/12/11 04:31:25;;;;;;;25.05;14.40;;;;;;;;;;6285869;28;20041;-68
2020/12/11 04:34:27;;;;;;;18.95;13.88;;;;;;;;;;6297395;28;20117;-70
2020/12/11 04:37:28;;;;;;;17.35;13.95;;;;;;;;;;6275348;28;20139;-69
2020/12/11 04:40:30;;;;;;;18.90;14.35;;;;;;;;;;6279900;28;20049;-72
2020/12/11 04:43:32;;;;;;;23.88;13.57;;;;;;;;;;6272061;28;20049;-70
2020/12/11 04:46:33;;;;;;;17.10;13.82;;;;;;;;;;6277510;28;20178;-71
2020/12/11 04:49:36;;;;;;;17.20;13.70;;;;;;;;;;6278467;28;20171;-69
2020/12/11 04:52:39;;;;;;;18.80;13.68;;;;;;;;;;6273223;28;20055;-70
2020/12/11 04:55:42;;;;;;;19.50;14.63;;;;;;;;;;6268076;28;20073;-70
2020/12/11 04:58:45;;;;;;;19.87;14.10;;;;;;;;;;6279197;28;20053;-72
2020/12/11 05:01:46;;;;;;;19.48;13.75;;;;;;;;;;6281351;28;20499;-69
2020/12/11 05:04:51;;;;;;;25.95;16.10;;;;;;;;;;6284825;28;20114;-70
2020/12/11 05:07:52;;;;;;;28.20;16.70;;;;;;;;;;6279739;28;20170;-71
2020/12/11 05:10:54;;;;;;;25.45;16.23;;;;;;;;;;6279917;28;20605;-73
2020/12/11 05:13:55;;;;;;;24.77;16.02;;;;;;;;;;6283093;28;20140;-70
2020/12/11 05:16:58;;;;;;;26.08;16.05;;;;;;;;;;6286972;28;20135;-70
2020/12/11 05:19:59;;;;;;;29.58;17.35;;;;;;;;;;6282654;28;20479;-69
2020/12/11 05:23:07;;;;;;;24.58;16.45;;;;;;;;;;6272538;28;20515;-69
2020/12/11 05:26:20;;;;;;;27.92;16.30;;;;;;;;;;6283765;28;20076;-70
2020/12/11 05:29:29;;;;;;;28.92;17.77;;;;;;;;;;6277813;28;20049;-72
2020/12/11 05:32:38;;;;;;;26.23;17.83;;;;;;;;;;6282839;28;20135;-70
2020/12/11 05:35:39;;;;;;;25.80;17.30;;;;;;;;;;6279555;28;20570;-70
2020/12/11 05:38:46;;;;;;;26.52;17.90;;;;;;;;;;6277163;28;20052;-69
2020/12/11 05:41:48;;;;;;;31.52;18.92;;;;;;;;;;6274884;28;20056;-69
2020/12/11 05:44:49;;;;;;;29.42;18.52;;;;;;;;;;6276416;28;20041;-70
2020/12/11 05:47:58;;;;;;;29.10;18.40;;;;;;;;;;6281174;28;20048;-70
2020/12/11 05:51:11;;;;;;;38.13;20.42;;;;;;;;;;6278631;28;20040;-70
2020/12/11 05:54:14;;;;;;;42.65;21.98;;;;;;;;;;6290845;28;20098;-70
2020/12/11 05:57:17;;;;;;;52.08;23.73;;;;;;;;;;6285569;28;20171;-71
2020/12/11 06:00:18;;;;;;;48.60;24.20;;;;;;;;;;6275900;28;20101;-71
2020/12/11 06:03:20;;;;;;;44.88;23.75;;;;;;;;;;6281733;28;20060;-69
2020/12/11 06:06:23;;;;;;;44.25;24.50;;;;;;;;;;6285214;28;20121;-71
2020/12/11 06:09:29;;;;;;;43.10;22.90;;;;;;;;;;6275874;28;20051;-69
2020/12/11 06:12:32;;;;;;;43.53;24.02;;;;;;;;;;6282156;28;20526;-70
2020/12/11 06:15:37;;;;;;;46.90;24.50;;;;;;;;;;6282930;28;20029;-70
2020/12/11 06:18:39;;;;;;;51.97;24.17;;;;;;;;;;6277750;28;20577;-70
2020/12/11 06:21:42;;;;;;;49.22;24.25;;;;;;;;;;6290769;28;20101;-71
2020/12/11 06:24:44;;;;;;;60.85;26.38;;;;;;;;;;6281357;28;20147;-72
2020/12/11 06:27:45;;;;;;;48.83;24.50;;;;;;;;;;6283476;28;20226;-69
2020/12/11 06:30:53;;;;;;;38.80;21.42;;;;;;;;;;6286423;28;20139;-73
2020/12/11 06:33:56;;;;;;;42.75;22.45;;;;;;;;;;6283522;28;20049;-70
2020/12/11 06:36:57;;;;;;;39.88;21.95;;;;;;;;;;6283676;28;20190;-70
2020/12/11 06:39:58;;;;;;;41.78;22.15;;;;;;;;;;6283147;28;20090;-72
2020/12/11 06:43:00;;;;;;;50.40;23.25;;;;;;;;;;6282910;28;20414;-73
2020/12/11 06:46:11;;;;;;;43.25;21.67;;;;;;;;;;6279694;28;20045;-73
2020/12/11 06:49:13;;;;;;;42.63;21.33;;;;;;;;;;6282750;28;20170;-68
2020/12/11 06:52:14;;;;;;;47.58;22.63;;;;;;;;;;6282039;28;20093;-69
2020/12/11 06:55:15;;;;;;;44.08;22.27;;;;;;;;;;6285560;28;20123;-69
2020/12/11 06:58:18;;;;;;;40.92;21.65;;;;;;;;;;6283081;28;20097;-70
2020/12/11 07:01:19;;;;;;;41.03;21.73;;;;;;;;;;6278214;28;20127;-70
2020/12/11 07:04:21;;;;;;;35.92;20.55;;;;;;;;;;6280851;28;20085;-69
2020/12/11 07:07:29;;;;;;;38.72;20.77;;;;;;;;;;6280926;28;20524;-69
2020/12/11 07:10:30;;;;;;;47.33;22.35;;;;;;;;;;6281016;28;20050;-69
2020/12/11 07:13:32;;;;;;;43.15;21.38;;;;;;;;;;6282397;28;20049;-69
2020/12/11 07:16:38;;;;;;;44.00;22.95;;;;;;;;;;6280251;28;20093;-69
2020/12/11 07:19:40;;;;;;;42.88;21.60;;;;;;;;;;6281710;28;20052;-69
2020/12/11 07:22:42;;;;;;;42.95;22.75;;;;;;;;;;6284087;28;20051;-68
2020/12/11 07:25:43;;;;;;;48.97;22.40;;;;;;;;;;6280364;28;20669;-68
2020/12/11 07:28:45;;;;;;;50.20;23.58;;;;;;;;;;6278696;28;20524;-68
2020/12/11 07:31:47;;;;;;;48.88;24.45;;;;;;;;;;6275597;28;20044;-68
2020/12/11 07:34:48;;;;;;;45.67;23.80;;;;;;;;;;6272409;28;20048;-68
2020/12/11 07:37:51;;;;;;;51.67;24.23;;;;;;;;;;6281944;28;20096;-68
2020/12/11 07:40:55;;;;;;;52.30;24.25;;;;;;;;;;6278698;28;20048;-69
2020/12/11 07:43:57;;;;;;;52.97;23.48;;;;;;;;;;6283204;28;20102;-69
2020/12/11 07:46:59;;;;;;;51.70;24.33;;;;;;;;;;6279512;28;20095;-69
2020/12/11 07:50:05;;;;;;;48.35;23.55;;;;;;;;;;6279707;28;20540;-69
2020/12/11 07:53:08;;;;;;;48.42;23.77;;;;;;;;;;6272546;28;20072;-69
2020/12/11 07:56:09;;;;;;;50.75;22.38;;;;;;;;;;6252453;28;20042;-69
2020/12/11 07:59:11;;;;;;;47.13;22.15;;;;;;;;;;6254265;28;20093;-68
2020/12/11 08:02:13;;;;;;;38.58;21.60;;;;;;;;;;6252670;28;20561;-72
2020/12/11 08:05:14;;;;;;;44.78;21.30;;;;;;;;;;5552965;28;10000513;-71
2020/12/11 08:08:15;;;;;;;45.80;22.00;;;;;;;;;;6269949;28;20041;-72
2020/12/11 08:11:23;;;;;;;38.72;21.35;;;;;;;;;;6249325;28;20075;-69
2020/12/11 08:14:25;;;;;;;39.67;20.25;;;;;;;;;;6252263;28;20097;-68
2020/12/11 08:17:26;;;;;;;34.45;19.38;;;;;;;;;;6250615;28;20469;-69
2020/12/11 08:20:42;;;;;;;36.25;19.02;;;;;;;;;;6258471;28;20262;-69
2020/12/11 08:23:44;;;;;;;32.58;18.90;;;;;;;;;;6259234;28;20504;-69
2020/12/11 08:26:45;;;;;;;28.33;17.70;;;;;;;;;;6259448;28;20061;-67
2020/12/11 08:30:02;;;;;;;25.20;16.48;;;;;;;;;;6254937;28;20178;-71
2020/12/11 08:33:09;;;;;;;27.75;17.05;;;;;;;;;;6249161;28;20041;-68
2020/12/11 08:36:22;;;;;;;26.52;18.23;;;;;;;;;;6251317;28;20060;-69
2020/12/11 08:39:24;;;;;;;27.70;17.13;;;;;;;;;;6255159;28;20179;-68
2020/12/11 08:42:27;;;;;;;27.95;17.92;;;;;;;;;;6256806;28;20063;-67
2020/12/11 08:45:32;;;;;;;29.40;19.00;;;;;;;;;;6255384;28;20040;-68
2020/12/11 08:48:58;;;;;;;29.33;19.10;;;;;;;;;;6260300;28;20037;-68
2020/12/11 08:52:00;;;;;;;32.28;18.45;;;;;;;;;;6261194;28;20790;-69
2020/12/11 08:55:01;;;;;;;27.30;17.45;;;;;;;;;;6258468;28;20532;-67
2020/12/11 08:58:02;;;;;;;24.75;17.48;;;;;;;;;;6254880;28;20567;-67
2020/12/11 09:01:05;;;;;;;31.83;18.27;;;;;;;;;;6251565;28;20128;-68
2020/12/11 09:04:06;;;;;;;29.27;18.73;;;;;;;;;;6258034;28;20045;-70
2020/12/11 09:07:07;;;;;;;31.20;19.20;;;;;;;;;;6254915;28;20128;-68
2020/12/11 09:10:08;;;;;;;34.05;20.30;;;;;;;;;;6257018;28;20049;-70
2020/12/11 09:13:09;;;;;;;34.13;20.35;;;;;;;;;;6258722;28;20128;-69
2020/12/11 09:16:11;;;;;;;34.35;20.67;;;;;;;;;;6258423;28;20414;-70
2020/12/11 09:19:12;;;;;;;31.27;21.33;;;;;;;;;;6253665;28;20462;-72
2020/12/11 09:22:13;;;;;;;34.45;20.95;;;;;;;;;;6254666;28;20049;-70
2020/12/11 09:25:15;;;;;;;37.15;21.77;;;;;;;;;;6272730;28;20051;-70
2020/12/11 09:28:18;;;;;;;33.45;22.00;;;;;;;;;;6264507;28;20106;-68
2020/12/11 09:31:22;;;;;;;38.77;21.13;;;;;;;;;;6251455;28;20203;-69
2020/12/11 09:34:23;;;;;;;34.30;20.15;;;;;;;;;;6256270;28;20053;-69
2020/12/11 09:37:24;;;;;;;32.60;20.88;;;;;;;;;;6282757;28;20794;-67
2020/12/11 09:40:33;;;;;;;34.65;21.05;;;;;;;;;;6283351;28;20110;-68
2020/12/11 09:47:04;;;;;;;35.28;21.98;;;;;;;;;;6279508;28;20045;-71
2020/12/11 09:50:15;;;;;;;37.15;22.60;;;;;;;;;;6281148;28;20048;-70
2020/12/11 09:53:25;;;;;;;37.67;22.88;;;;;;;;;;6282587;28;20048;-68
2020/12/11 09:56:27;;;;;;;37.35;23.85;;;;;;;;;;6278481;28;20544;-68
2020/12/11 09:59:32;;;;;;;37.15;23.33;;;;;;;;;;6284215;28;20083;-67
2020/12/11 10:02:45;;;;;;;37.53;23.50;;;;;;;;;;6282786;28;20056;-71
2020/12/11 10:05:46;;;;;;;34.97;22.83;;;;;;;;;;6266811;28;20115;-68
2020/12/11 10:08:47;;;;;;;40.47;24.23;;;;;;;;;;6259889;28;20119;-70
2020/12/11 10:11:50;;;;;;;34.38;23.05;;;;;;;;;;6253890;28;20081;-73
2020/12/11 10:14:56;;;;;;;39.05;24.17;;;;;;;;;;6254803;28;20166;-67
2020/12/11 10:18:02;;;;;;;47.10;24.05;;;;;;;;;;6254178;28;20064;-67
2020/12/11 10:21:03;;;;;;;46.83;24.95;;;;;;;;;;6273682;28;20056;-67
2020/12/11 10:24:04;;;;;;;37.03;23.35;;;;;;;;;;6274423;28;20044;-71
2020/12/11 10:27:05;;;;;;;39.72;24.08;;;;;;;;;;6264260;28;20102;-69
2020/12/11 10:30:06;;;;;;;41.55;26.08;;;;;;;;;;6258352;28;20078;-68
2020/12/11 10:33:08;;;;;;;43.85;25.63;;;;;;;;;;6257339;28;20120;-67
2020/12/11 10:36:09;;;;;;;44.33;26.08;;;;;;;;;;6261601;28;20082;-68
2020/12/11 10:39:10;;;;;;;42.63;27.42;;;;;;;;;;6254127;28;20179;-71
2020/12/11 10:42:11;;;;;;;48.80;29.00;;;;;;;;;;6248624;28;20064;-70
2020/12/11 10:45:12;;;;;;;43.25;26.75;;;;;;;;;;6254482;28;20156;-67
2020/12/11 10:48:14;;;;;;;43.80;26.63;;;;;;;;;;6262829;28;20086;-71
2020/12/11 10:51:16;;;;;;;43.78;26.85;;;;;;;;;;6258410;28;20096;-71
2020/12/11 10:54:18;;;;;;;47.60;27.30;;;;;;;;;;6263774;28;20621;-69
2020/12/11 10:57:19;;;;;;;42.53;26.65;;;;;;;;;;6262114;28;20046;-70
2020/12/11 11:00:20;;;;;;;46.13;26.52;;;;;;;;;;6264965;28;20175;-70
2020/12/11 11:03:22;;;;;;;42.05;26.98;;;;;;;;;;6257748;28;20045;-68
2020/12/11 11:06:26;;;;;;;41.92;27.25;;;;;;;;;;6259240;28;20506;-68
2020/12/11 11:09:38;;;;;;;44.22;27.83;;;;;;;;;;6252558;28;20074;-70
2020/12/11 11:12:42;;;;;;;47.55;29.05;;;;;;;;;;6271910;28;20132;-68
2020/12/11 11:15:47;;;;;;;43.25;28.00;;;;;;;;;;6258015;28;20072;-68
2020/12/11 11:18:53;;;;;;;43.33;28.67;;;;;;;;;;6259338;28;20045;-67
2020/12/11 11:22:13;;;;;;;45.40;28.83;;;;;;;;;;6261366;28;20060;-68
2020/12/11 11:28:35;;;;;;;53.35;32.60;;;;;;;;;;6259362;28;20055;-69
2020/12/11 11:31:37;;;;;;;52.95;32.30;;;;;;;;;;6258570;28;20052;-68
2020/12/11 11:34:38;;;;;;;53.47;30.98;;;;;;;;;;6255823;28;20057;-68
2020/12/11 11:37:40;;;;;;;51.08;30.92;;;;;;;;;;6263885;28;20133;-68
2020/12/11 11:40:41;;;;;;;50.72;31.48;;;;;;;;;;6248935;28;20140;-68
2020/12/11 11:44:01;;;;;;;49.33;31.38;;;;;;;;;;6264462;28;20167;-68
2020/12/11 11:47:02;;;;;;;57.97;32.67;;;;;;;;;;6249076;28;20488;-68
2020/12/11 11:50:24;;;;;;;54.42;32.28;;;;;;;;;;6252397;28;20036;-69
2020/12/11 11:53:27;;;;;;;59.55;34.35;;;;;;;;;;6283031;28;20056;-68
2020/12/11 11:56:28;;;;;;;60.10;33.75;;;;;;;;;;6290365;28;20071;-67
2020/12/11 11:59:30;;;;;;;52.47;33.03;;;;;;;;;;6285645;28;20102;-70
2020/12/11 12:02:31;;;;;;;54.47;33.17;;;;;;;;;;6283832;28;20098;-68
2020/12/11 12:05:33;;;;;;;57.22;33.75;;;;;;;;;;6273882;28;20127;-69
2020/12/11 12:08:34;;;;;;;66.63;34.78;;;;;;;;;;6261464;28;20095;-69
2020/12/11 12:11:35;;;;;;;58.50;34.95;;;;;;;;;;6254045;28;20136;-68
2020/12/11 12:14:36;;;;;;;62.83;34.80;;;;;;;;;;6267352;28;20045;-69
2020/12/11 12:17:40;;;;;;;58.35;34.38;;;;;;;;;;6279110;28;20519;-72
2020/12/11 12:20:50;;;;;;;76.90;36.95;;;;;;;;;;6288893;28;20692;-69
2020/12/11 12:27:21;;;;;;;58.33;33.92;;;;;;;;;;6284355;28;20048;-70
2020/12/11 12:27:47;;;;;;;59.38;34.47;;;;;;;;;;6279561;28;20087;-67
2020/12/11 12:30:48;;;;;;;61.80;36.15;;;;;;;;;;6279999;28;20040;-69
2020/12/11 12:42:11;;;;;;;63.20;36.08;;;;;;;;;;6268777;28;20695;-70
2020/12/11 12:44:07;;;;;;;53.53;32.88;;;;;;;;;;6254117;28;20083;-70
2020/12/11 12:47:08;;;;;;;56.05;33.63;;;;;;;;;;6252313;28;20550;-70
2020/12/11 12:50:10;;;;;;;56.92;33.25;;;;;;;;;;6254421;28;20061;-70
2020/12/11 12:53:11;;;;;;;48.10;31.95;;;;;;;;;;6252250;28;20055;-70
2020/12/11 12:56:34;;;;;;;57.95;33.75;;;;;;;;;;6251573;28;20090;-69
2020/12/11 12:59:43;;;;;;;47.22;30.77;;;;;;;;;;6258548;28;20073;-69
2020/12/11 13:06:12;;;;;;;50.42;31.75;;;;;;;;;;6253731;28;20496;-70
2020/12/11 13:09:16;;;;;;;46.17;30.80;;;;;;;;;;6257836;28;20143;-70
2020/12/11 13:12:17;;;;;;;48.53;32.17;;;;;;;;;;6251608;28;20045;-68
2020/12/11 13:15:18;;;;;;;54.15;32.55;;;;;;;;;;6259804;28;20053;-69
2020/12/11 13:18:19;;;;;;;51.88;31.60;;;;;;;;;;6261067;28;20063;-70
2020/12/11 13:21:25;;;;;;;49.33;33.00;;;;;;;;;;6259255;28;20041;-70
2020/12/11 13:27:47;;;;;;;57.53;34.72;;;;;;;;;;6258467;28;20045;-69
2020/12/11 13:30:48;;;;;;;57.83;36.50;;;;;;;;;;6261809;28;20048;-70
2020/12/11 13:33:50;;;;;;;55.33;35.33;;;;;;;;;;6262175;28;20094;-70
2020/12/11 13:36:51;;;;;;;62.60;36.15;;;;;;;;;;6258553;28;20110;-69
2020/12/11 13:39:53;;;;;;;61.15;36.00;;;;;;;;;;6259625;28;20061;-68
2020/12/11 13:42:54;;;;;;;57.35;34.92;;;;;;;;;;6276002;28;20128;-70
2020/12/11 13:45:55;;;;;;;54.03;34.35;;;;;;;;;;6272126;28;20117;-70
2020/12/11 13:48:56;;;;;;;58.67;35.17;;;;;;;;;;6260376;28;20049;-69
2020/12/11 13:51:57;;;;;;;57.13;32.92;;;;;;;;;;6265663;28;20044;-69
2020/12/11 13:55:00;;;;;;;57.22;36.13;;;;;;;;;;6256744;28;20142;-70
2020/12/11 13:58:01;;;;;;;59.53;35.47;;;;;;;;;;6256002;28;20126;-69
2020/12/11 14:01:02;;;;;;;61.85;37.30;;;;;;;;;;6256444;28;20140;-72
2020/12/11 14:04:04;;;;;;;55.58;34.70;;;;;;;;;;6256682;28;20143;-69
2020/12/11 14:07:05;;;;;;;54.35;35.80;;;;;;;;;;6256446;28;21108;-70
2020/12/11 14:10:07;;;;;;;52.75;34.92;;;;;;;;;;6258241;28;20053;-72
2020/12/11 14:13:08;;;;;;;53.75;36.50;;;;;;;;;;6248073;28;20447;-70
2020/12/11 14:16:13;;;;;;;54.40;34.35;;;;;;;;;;6251218;28;20664;-70
2020/12/11 14:19:26;;;;;;;59.58;36.35;;;;;;;;;;6255160;28;20885;-73
2020/12/11 14:22:34;;;;;;;51.80;33.78;;;;;;;;;;6252449;28;20056;-70
2020/12/11 14:25:36;;;;;;;47.80;32.92;;;;;;;;;;6258365;28;20107;-71
2020/12/11 14:28:37;;;;;;;49.72;33.63;;;;;;;;;;6258277;28;20049;-73
2020/12/11 14:31:38;;;;;;;46.28;31.60;;;;;;;;;;6256756;28;20130;-71
2020/12/11 14:34:44;;;;;;;56.55;33.33;;;;;;;;;;6261818;28;20126;-71
2020/12/11 14:37:46;;;;;;;49.22;32.38;;;;;;;;;;6262425;28;20041;-70
2020/12/11 14:40:48;;;;;;;44.40;31.58;;;;;;;;;;6263004;28;20060;-71
2020/12/11 14:43:49;;;;;;;51.25;32.03;;;;;;;;;;6259962;28;20052;-72
2020/12/11 14:46:53;;;;;;;45.58;31.25;;;;;;;;;;6254558;28;20143;-70
2020/12/11 14:49:54;;;;;;;46.65;31.58;;;;;;;;;;6261446;28;20692;-69
2020/12/11 14:52:55;;;;;;;43.53;29.98;;;;;;;;;;6253676;28;20062;-71
2020/12/11 14:55:57;;;;;;;44.20;30.48;;;;;;;;;;6260287;28;20098;-68
2020/12/11 14:58:58;;;;;;;44.92;31.02;;;;;;;;;;6255825;28;20155;-71
2020/12/11 15:01:59;;;;;;;42.60;29.88;;;;;;;;;;6257735;28;20163;-71
2020/12/11 15:05:00;;;;;;;45.83;31.17;;;;;;;;;;6253110;28;20236;-70
2020/12/11 15:08:02;;;;;;;47.22;31.23;;;;;;;;;;6250134;28;20481;-70
2020/12/11 15:11:04;;;;;;;42.53;30.00;;;;;;;;;;6251913;28;20053;-70
2020/12/11 15:14:05;;;;;;;48.65;30.75;;;;;;;;;;6255204;28;20155;-72
2020/12/11 15:17:06;;;;;;;38.25;29.38;;;;;;;;;;6259130;28;20649;-69
2020/12/11 15:20:07;;;;;;;44.28;29.58;;;;;;;;;;6248580;28;20521;-70
2020/12/11 15:23:09;;;;;;;41.83;29.83;;;;;;;;;;6243414;28;20235;-70
2020/12/11 15:26:10;;;;;;;41.90;28.77;;;;;;;;;;6253545;28;20347;-70
2020/12/11 15:29:12;;;;;;;42.90;28.80;;;;;;;;;;6253654;28;20492;-72
2020/12/11 15:32:13;;;;;;;39.78;29.27;;;;;;;;;;6248264;28;20499;-70
2020/12/11 15:35:14;;;;;;;44.25;29.77;;;;;;;;;;6256123;28;20049;-70
2020/12/11 15:38:15;;;;;;;40.55;30.67;;;;;;;;;;6254378;28;20202;-71
2020/12/11 15:41:17;;;;;;;42.58;29.08;;;;;;;;;;6253684;28;20072;-68
2020/12/11 15:44:18;;;;;;;43.53;29.55;;;;;;;;;;6257865;28;20139;-68
2020/12/11 15:47:22;;;;;;;41.95;28.75;;;;;;;;;;6255100;28;20057;-69
2020/12/11 15:50:28;;;;;;;41.65;29.25;;;;;;;;;;6255557;28;20045;-70
2020/12/11 15:53:29;;;;;;;45.97;30.45;;;;;;;;;;6271784;28;20083;-69
2020/12/11 15:56:31;;;;;;;47.08;29.67;;;;;;;;;;6267880;28;20183;-69
2020/12/11 15:59:32;;;;;;;46.30;31.77;;;;;;;;;;6275479;28;20127;-68
2020/12/11 16:02:33;;;;;;;46.05;31.48;;;;;;;;;;6269561;28;21318;-68
2020/12/11 16:05:34;;;;;;;49.53;32.00;;;;;;;;;;6270824;28;20136;-69
2020/12/11 16:08:35;;;;;;;46.50;31.75;;;;;;;;;;6275858;28;20105;-69
2020/12/11 16:11:37;;;;;;;50.13;34.97;;;;;;;;;;6284046;28;20056;-68
2020/12/11 16:14:38;;;;;;;54.17;36.10;;;;;;;;;;6281798;28;20044;-68
2020/12/11 16:17:39;;;;;;;50.80;35.72;;;;;;;;;;6277763;28;20059;-68
2020/12/11 16:20:40;;;;;;;56.28;38.03;;;;;;;;;;6266592;28;20057;-71
2020/12/11 16:23:41;;;;;;;57.17;35.85;;;;;;;;;;6235638;28;20105;-70
2020/12/11 16:26:43;;;;;;;50.25;33.33;;;;;;;;;;6253812;28;20067;-69
2020/12/11 16:29:44;;;;;;;48.20;32.80;;;;;;;;;;6255100;28;20045;-70
2020/12/11 16:32:45;;;;;;;49.85;34.55;;;;;;;;;;6252077;28;20067;-69
2020/12/11 16:35:46;;;;;;;48.58;33.63;;;;;;;;;;6279623;28;20132;-69
2020/12/11 16:38:48;;;;;;;50.42;34.63;;;;;;;;;;6272827;28;20194;-70
2020/12/11 16:41:55;;;;;;;51.33;34.83;;;;;;;;;;6275465;28;20185;-69
2020/12/11 16:45:02;;;;;;;58.75;37.40;;;;;;;;;;6275176;28;20056;-68
2020/12/11 16:48:04;;;;;;;60.10;39.53;;;;;;;;;;6273564;28;20072;-71
2020/12/11 16:51:05;;;;;;;58.42;39.55;;;;;;;;;;6266255;28;21093;-70
2020/12/11 16:54:06;;;;;;;63.20;38.35;;;;;;;;;;6274533;28;20132;-69
2020/12/11 16:57:08;;;;;;;60.30;39.63;;;;;;;;;;6273142;28;20515;-70
2020/12/11 17:00:12;;;;;;;62.90;38.88;;;;;;;;;;6275162;28;20536;-69
2020/12/11 17:03:31;;;;;;;66.47;39.63;;;;;;;;;;6271064;28;20505;-69
2020/12/11 17:06:41;;;;;;;60.80;39.70;;;;;;;;;;6246513;28;20049;-70
2020/12/11 17:09:44;;;;;;;57.63;37.60;;;;;;;;;;6258185;28;20052;-69
2020/12/11 17:12:46;;;;;;;60.42;38.20;;;;;;;;;;6254057;28;20060;-72
2020/12/11 17:15:48;;;;;;;60.38;40.00;;;;;;;;;;6256654;28;20115;-69
2020/12/11 17:18:49;;;;;;;63.58;38.65;;;;;;;;;;6253192;28;20048;-70
2020/12/11 17:21:50;;;;;;;59.63;40.80;;;;;;;;;;6245727;28;20062;-70
2020/12/11 17:24:52;;;;;;;61.97;39.45;;;;;;;;;;6256269;28;20800;-70
2020/12/11 17:27:54;;;;;;;59.72;39.10;;;;;;;;;;6252958;28;20045;-70
2020/12/11 17:30:59;;;;;;;57.08;37.78;;;;;;;;;;6256239;28;20056;-71
2020/12/11 17:34:07;;;;;;;61.70;39.15;;;;;;;;;;6249961;28;20053;-72
2020/12/11 17:37:10;;;;;;;56.70;37.10;;;;;;;;;;6250163;28;20132;-69
2020/12/11 17:40:12;;;;;;;57.67;38.47;;;;;;;;;;6251572;28;20152;-69
2020/12/11 17:43:13;;;;;;;61.90;38.85;;;;;;;;;;6254357;28;20072;-69
2020/12/11 17:46:15;;;;;;;59.92;39.13;;;;;;;;;;6247812;28;20200;-71
2020/12/11 17:49:16;;;;;;;60.95;39.42;;;;;;;;;;6249232;28;20072;-72
2020/12/11 17:52:17;;;;;;;61.30;38.85;;;;;;;;;;6256572;28;20049;-71
2020/12/11 17:55:18;;;;;;;59.80;37.85;;;;;;;;;;5909260;28;10000003;-70
2020/12/11 17:58:20;;;;;;;58.00;37.95;;;;;;;;;;6262140;28;20409;-72
2020/12/11 18:01:21;;;;;;;59.08;38.17;;;;;;;;;;6265278;28;20053;-70
2020/12/11 18:04:23;;;;;;;60.47;37.95;;;;;;;;;;6263758;28;20492;-71